sensor_id;sensor_type;location;lat;lon;timestamp;temperature;humidity
37340;DHT22;23223;51.006;7.610;2023-06-22T00:00:19;20.00;99.90
37340;DHT22;23223;51.006;7.610;2023-06-22T00:02:45;19.90;99.90
37340;DHT22;23223;51.006;7.610;2023-06-22T00:05:10;20.00;99.90
37340;DHT22;23223;51.006;7.610;2023-06-22T00:07:36;20.00;99.90
37340;DHT22;23223;51.006;7.610;2023-06-22T00:10:02;19.90;99.90
37340;DHT22;23223;51.006;7.610;2023-06-22T00:12:27;19.70;99.90
37340;DHT22;23223;51.006;7.610;2023-06-22T00:14:53;19.70;99.90
37340;DHT22;23223;51.006;7.610;2023-06-22T00:17:18;19.80;99.90
37340;DHT22;23223;51.006;7.610;2023-06-22T00:19:47;19.80;99.90
37340;DHT22;23223;51.006;7.610;2023-06-22T00:22:12;19.80;99.90
37340;DHT22;23223;51.006;7.610;2023-06-22T00:24:38;19.70;99.90
37340;DHT22;23223;51.006;7.610;2023-06-22T00:27:04;19.50;99.90
37340;DHT22;23223;51.006;7.610;2023-06-22T00:29:31;19.40;99.90
37340;DHT22;23223;51.006;7.610;2023-06-22T00:31:56;19.30;99.90
37340;DHT22;23223;51.006;7.610;2023-06-22T00:34:22;19.30;99.90
37340;DHT22;23223;51.006;7.610;2023-06-22T00:36:47;19.30;99.90
37340;DHT22;23223;51.006;7.610;2023-06-22T00:39:13;19.20;99.90
37340;DHT22;23223;51.006;7.610;2023-06-22T00:41:39;19.20;99.90
37340;DHT22;23223;51.006;7.610;2023-06-22T00:44:04;19.10;99.90
37340;DHT22;23223;51.006;7.610;2023-06-22T00:46:30;19.10;99.90
37340;DHT22;23223;51.006;7.610;2023-06-22T00:48:56;19.20;99.90
37340;DHT22;23223;51.006;7.610;2023-06-22T00:51:22;19.30;99.90
37340;DHT22;23223;51.006;7.610;2023-06-22T00:53:50;19.70;99.90
37340;DHT22;23223;51.006;7.610;2023-06-22T00:56:17;19.90;99.90
37340;DHT22;23223;51.006;7.610;2023-06-22T00:58:45;19.90;99.90
37340;DHT22;23223;51.006;7.610;2023-06-22T01:01:12;19.70;99.90
37340;DHT22;23223;51.006;7.610;2023-06-22T01:03:39;19.60;99.90
37340;DHT22;23223;51.006;7.610;2023-06-22T01:06:10;19.50;99.90
37340;DHT22;23223;51.006;7.610;2023-06-22T01:08:51;19.50;99.90
37340;DHT22;23223;51.006;7.610;2023-06-22T01:11:37;19.50;99.90
37340;DHT22;23223;51.006;7.610;2023-06-22T01:14:14;19.50;99.90
37340;DHT22;23223;51.006;7.610;2023-06-22T01:16:43;19.60;99.90
37340;DHT22;23223;51.006;7.610;2023-06-22T01:21:44;19.80;99.90
37340;DHT22;23223;51.006;7.610;2023-06-22T01:24:33;19.60;99.90
37340;DHT22;23223;51.006;7.610;2023-06-22T01:29:50;19.40;99.90
37340;DHT22;23223;51.006;7.610;2023-06-22T01:32:17;19.30;99.90
37340;DHT22;23223;51.006;7.610;2023-06-22T01:34:43;19.20;99.90
37340;DHT22;23223;51.006;7.610;2023-06-22T01:37:09;19.20;99.90
37340;DHT22;23223;51.006;7.610;2023-06-22T01:39:35;19.10;99.90
37340;DHT22;23223;51.006;7.610;2023-06-22T01:42:02;19.20;99.90
37340;DHT22;23223;51.006;7.610;2023-06-22T01:44:29;19.20;99.90
37340;DHT22;23223;51.006;7.610;2023-06-22T01:46:55;19.30;99.90
37340;DHT22;23223;51.006;7.610;2023-06-22T01:49:21;19.30;99.90
37340;DHT22;23223;51.006;7.610;2023-06-22T01:51:46;19.60;99.90
37340;DHT22;23223;51.006;7.610;2023-06-22T01:54:12;19.60;99.90
37340;DHT22;23223;51.006;7.610;2023-06-22T01:56:38;19.80;99.90
37340;DHT22;23223;51.006;7.610;2023-06-22T01:59:15;19.70;99.90
37340;DHT22;23223;51.006;7.610;2023-06-22T02:01:48;19.60;99.90
37340;DHT22;23223;51.006;7.610;2023-06-22T02:04:21;19.50;99.90
37340;DHT22;23223;51.006;7.610;2023-06-22T02:06:51;19.40;99.90
37340;DHT22;23223;51.006;7.610;2023-06-22T02:09:22;19.30;99.90
37340;DHT22;23223;51.006;7.610;2023-06-22T02:11:50;19.20;99.90
37340;DHT22;23223;51.006;7.610;2023-06-22T02:14:21;19.20;99.90
37340;DHT22;23223;51.006;7.610;2023-06-22T02:16:47;19.20;99.90
37340;DHT22;23223;51.006;7.610;2023-06-22T02:19:12;19.10;99.90
37340;DHT22;23223;51.006;7.610;2023-06-22T02:21:44;19.10;99.90
37340;DHT22;23223;51.006;7.610;2023-06-22T02:24:10;19.20;99.90
37340;DHT22;23223;51.006;7.610;2023-06-22T02:26:36;19.40;99.90
37340;DHT22;23223;51.006;7.610;2023-06-22T02:29:03;19.50;99.90
37340;DHT22;23223;51.006;7.610;2023-06-22T02:31:29;19.70;99.90
37340;DHT22;23223;51.006;7.610;2023-06-22T02:33:59;19.70;99.90
37340;DHT22;23223;51.006;7.610;2023-06-22T02:36:25;19.60;99.90
37340;DHT22;23223;51.006;7.610;2023-06-22T02:38:53;19.40;99.90
37340;DHT22;23223;51.006;7.610;2023-06-22T02:41:19;19.40;99.90
37340;DHT22;23223;51.006;7.610;2023-06-22T02:43:46;19.60;99.90
37340;DHT22;23223;51.006;7.610;2023-06-22T02:46:12;19.80;99.90
37340;DHT22;23223;51.006;7.610;2023-06-22T02:48:39;19.80;99.90
37340;DHT22;23223;51.006;7.610;2023-06-22T02:51:05;19.70;99.90
37340;DHT22;23223;51.006;7.610;2023-06-22T02:53:30;19.60;99.90
37340;DHT22;23223;51.006;7.610;2023-06-22T02:55:57;19.60;99.90
37340;DHT22;23223;51.006;7.610;2023-06-22T02:58:22;19.60;99.90
37340;DHT22;23223;51.006;7.610;2023-06-22T03:00:49;20.00;99.90
37340;DHT22;23223;51.006;7.610;2023-06-22T03:03:18;20.30;99.90
37340;DHT22;23223;51.006;7.610;2023-06-22T03:05:44;20.20;99.90
37340;DHT22;23223;51.006;7.610;2023-06-22T03:08:09;19.90;99.90
37340;DHT22;23223;51.006;7.610;2023-06-22T03:10:35;19.70;99.90
37340;DHT22;23223;51.006;7.610;2023-06-22T03:13:00;19.50;99.90
37340;DHT22;23223;51.006;7.610;2023-06-22T03:15:26;19.30;99.90
37340;DHT22;23223;51.006;7.610;2023-06-22T03:17:55;19.40;99.90
37340;DHT22;23223;51.006;7.610;2023-06-22T03:20:20;19.80;99.90
37340;DHT22;23223;51.006;7.610;2023-06-22T03:22:49;20.10;99.90
37340;DHT22;23223;51.006;7.610;2023-06-22T03:25:14;20.10;99.90
37340;DHT22;23223;51.006;7.610;2023-06-22T03:27:43;20.00;99.90
37340;DHT22;23223;51.006;7.610;2023-06-22T03:30:13;19.80;99.90
37340;DHT22;23223;51.006;7.610;2023-06-22T03:32:39;19.60;99.90
37340;DHT22;23223;51.006;7.610;2023-06-22T03:35:04;19.50;99.90
37340;DHT22;23223;51.006;7.610;2023-06-22T03:37:31;19.30;99.90
37340;DHT22;23223;51.006;7.610;2023-06-22T03:39:57;19.20;99.90
37340;DHT22;23223;51.006;7.610;2023-06-22T03:42:22;19.10;99.90
37340;DHT22;23223;51.006;7.610;2023-06-22T03:44:48;19.10;99.90
37340;DHT22;23223;51.006;7.610;2023-06-22T03:47:13;19.10;99.90
37340;DHT22;23223;51.006;7.610;2023-06-22T03:49:39;19.20;99.90
37340;DHT22;23223;51.006;7.610;2023-06-22T03:52:05;19.50;99.90
37340;DHT22;23223;51.006;7.610;2023-06-22T03:54:31;19.60;99.90
37340;DHT22;23223;51.006;7.610;2023-06-22T03:56:57;19.50;99.90
37340;DHT22;23223;51.006;7.610;2023-06-22T03:59:23;19.50;99.90
37340;DHT22;23223;51.006;7.610;2023-06-22T04:01:49;19.40;99.90
37340;DHT22;23223;51.006;7.610;2023-06-22T04:04:16;19.50;99.90
37340;DHT22;23223;51.006;7.610;2023-06-22T04:06:41;19.80;99.90
37340;DHT22;23223;51.006;7.610;2023-06-22T04:09:07;19.90;99.90
37340;DHT22;23223;51.006;7.610;2023-06-22T04:11:32;19.80;99.90
37340;DHT22;23223;51.006;7.610;2023-06-22T04:13:58;19.70;99.90
37340;DHT22;23223;51.006;7.610;2023-06-22T04:16:23;19.50;99.90
37340;DHT22;23223;51.006;7.610;2023-06-22T04:18:49;19.50;99.90
37340;DHT22;23223;51.006;7.610;2023-06-22T04:21:14;19.40;99.90
37340;DHT22;23223;51.006;7.610;2023-06-22T04:23:40;19.20;99.90
37340;DHT22;23223;51.006;7.610;2023-06-22T04:26:05;19.20;99.90
37340;DHT22;23223;51.006;7.610;2023-06-22T04:28:31;19.30;99.90
37340;DHT22;23223;51.006;7.610;2023-06-22T04:31:01;19.40;99.90
37340;DHT22;23223;51.006;7.610;2023-06-22T04:33:28;19.50;99.90
37340;DHT22;23223;51.006;7.610;2023-06-22T04:35:55;20.10;99.90
37340;DHT22;23223;51.006;7.610;2023-06-22T04:38:22;20.60;99.90
37340;DHT22;23223;51.006;7.610;2023-06-22T04:40:48;21.10;99.90
37340;DHT22;23223;51.006;7.610;2023-06-22T04:43:14;21.40;99.90
37340;DHT22;23223;51.006;7.610;2023-06-22T04:45:39;21.60;99.90
37340;DHT22;23223;51.006;7.610;2023-06-22T04:48:05;21.40;99.90
37340;DHT22;23223;51.006;7.610;2023-06-22T04:50:31;21.20;99.90
37340;DHT22;23223;51.006;7.610;2023-06-22T04:52:56;20.90;99.90
37340;DHT22;23223;51.006;7.610;2023-06-22T04:55:24;20.60;99.90
37340;DHT22;23223;51.006;7.610;2023-06-22T04:57:51;20.50;99.90
37340;DHT22;23223;51.006;7.610;2023-06-22T05:00:18;20.60;99.90
37340;DHT22;23223;51.006;7.610;2023-06-22T05:02:49;21.00;99.90
37340;DHT22;23223;51.006;7.610;2023-06-22T05:05:15;21.30;99.90
37340;DHT22;23223;51.006;7.610;2023-06-22T05:07:46;21.50;99.90
37340;DHT22;23223;51.006;7.610;2023-06-22T05:10:13;21.50;99.90
37340;DHT22;23223;51.006;7.610;2023-06-22T05:12:40;21.50;99.90
37340;DHT22;23223;51.006;7.610;2023-06-22T05:15:07;21.30;99.90
37340;DHT22;23223;51.006;7.610;2023-06-22T05:17:33;21.10;99.90
37340;DHT22;23223;51.006;7.610;2023-06-22T05:19:59;20.90;99.90
37340;DHT22;23223;51.006;7.610;2023-06-22T05:22:25;20.70;99.90
37340;DHT22;23223;51.006;7.610;2023-06-22T05:24:50;20.50;99.90
37340;DHT22;23223;51.006;7.610;2023-06-22T05:27:16;20.40;99.90
37340;DHT22;23223;51.006;7.610;2023-06-22T05:29:41;20.20;99.90
37340;DHT22;23223;51.006;7.610;2023-06-22T05:32:10;20.30;99.90
37340;DHT22;23223;51.006;7.610;2023-06-22T05:34:35;20.30;99.90
37340;DHT22;23223;51.006;7.610;2023-06-22T05:37:02;20.20;99.90
37340;DHT22;23223;51.006;7.610;2023-06-22T05:39:28;20.20;99.90
37340;DHT22;23223;51.006;7.610;2023-06-22T05:41:53;20.50;99.90
37340;DHT22;23223;51.006;7.610;2023-06-22T05:44:19;21.00;99.90
37340;DHT22;23223;51.006;7.610;2023-06-22T05:46:45;21.10;99.90
37340;DHT22;23223;51.006;7.610;2023-06-22T05:49:12;20.90;99.90
37340;DHT22;23223;51.006;7.610;2023-06-22T05:51:38;20.80;99.90
37340;DHT22;23223;51.006;7.610;2023-06-22T05:54:04;20.80;99.90
37340;DHT22;23223;51.006;7.610;2023-06-22T05:56:29;20.80;99.90
37340;DHT22;23223;51.006;7.610;2023-06-22T05:58:55;20.80;99.90
37340;DHT22;23223;51.006;7.610;2023-06-22T06:01:21;20.80;99.90
37340;DHT22;23223;51.006;7.610;2023-06-22T06:03:46;20.90;99.90
37340;DHT22;23223;51.006;7.610;2023-06-22T06:06:12;21.10;99.90
37340;DHT22;23223;51.006;7.610;2023-06-22T06:08:38;21.20;99.90
37340;DHT22;23223;51.006;7.610;2023-06-22T06:11:04;21.40;99.90
37340;DHT22;23223;51.006;7.610;2023-06-22T06:13:30;21.60;99.90
37340;DHT22;23223;51.006;7.610;2023-06-22T06:15:56;21.70;99.90
37340;DHT22;23223;51.006;7.610;2023-06-22T06:18:22;21.90;99.90
37340;DHT22;23223;51.006;7.610;2023-06-22T06:20:47;22.20;99.90
37340;DHT22;23223;51.006;7.610;2023-06-22T06:23:13;22.50;99.90
37340;DHT22;23223;51.006;7.610;2023-06-22T06:25:39;22.70;99.90
37340;DHT22;23223;51.006;7.610;2023-06-22T06:28:04;22.90;99.90
37340;DHT22;23223;51.006;7.610;2023-06-22T06:30:30;23.10;99.90
37340;DHT22;23223;51.006;7.610;2023-06-22T06:32:56;23.10;99.90
37340;DHT22;23223;51.006;7.610;2023-06-22T06:35:22;22.90;99.90
37340;DHT22;23223;51.006;7.610;2023-06-22T06:37:49;22.90;99.90
37340;DHT22;23223;51.006;7.610;2023-06-22T06:40:15;23.10;99.90
37340;DHT22;23223;51.006;7.610;2023-06-22T06:42:44;23.50;99.90
37340;DHT22;23223;51.006;7.610;2023-06-22T06:45:19;23.80;99.90
37340;DHT22;23223;51.006;7.610;2023-06-22T06:47:45;24.20;99.90
37340;DHT22;23223;51.006;7.610;2023-06-22T06:50:11;24.40;99.90
37340;DHT22;23223;51.006;7.610;2023-06-22T06:52:37;24.30;99.90
37340;DHT22;23223;51.006;7.610;2023-06-22T06:55:03;24.40;99.90
37340;DHT22;23223;51.006;7.610;2023-06-22T06:57:30;24.40;99.90
37340;DHT22;23223;51.006;7.610;2023-06-22T06:59:56;24.40;99.90
37340;DHT22;23223;51.006;7.610;2023-06-22T07:02:23;24.50;99.90
37340;DHT22;23223;51.006;7.610;2023-06-22T07:04:48;24.70;99.90
37340;DHT22;23223;51.006;7.610;2023-06-22T07:07:14;24.60;99.90
37340;DHT22;23223;51.006;7.610;2023-06-22T07:09:40;24.70;99.90
37340;DHT22;23223;51.006;7.610;2023-06-22T07:12:06;24.90;99.90
37340;DHT22;23223;51.006;7.610;2023-06-22T07:14:32;25.10;99.90
37340;DHT22;23223;51.006;7.610;2023-06-22T07:16:58;25.20;99.90
37340;DHT22;23223;51.006;7.610;2023-06-22T07:19:27;25.00;99.90
37340;DHT22;23223;51.006;7.610;2023-06-22T07:21:54;25.10;99.90
37340;DHT22;23223;51.006;7.610;2023-06-22T07:24:22;25.20;99.90
37340;DHT22;23223;51.006;7.610;2023-06-22T07:26:48;25.60;99.90
37340;DHT22;23223;51.006;7.610;2023-06-22T07:29:16;26.20;99.90
37340;DHT22;23223;51.006;7.610;2023-06-22T07:31:42;26.40;99.90
37340;DHT22;23223;51.006;7.610;2023-06-22T07:34:07;26.60;99.90
37340;DHT22;23223;51.006;7.610;2023-06-22T07:36:33;27.00;99.90
37340;DHT22;23223;51.006;7.610;2023-06-22T07:39:01;27.00;99.90
37340;DHT22;23223;51.006;7.610;2023-06-22T07:41:28;27.20;99.90
37340;DHT22;23223;51.006;7.610;2023-06-22T07:43:53;27.10;99.90
37340;DHT22;23223;51.006;7.610;2023-06-22T07:46:19;26.80;99.90
37340;DHT22;23223;51.006;7.610;2023-06-22T07:48:44;26.70;99.90
37340;DHT22;23223;51.006;7.610;2023-06-22T07:51:10;26.60;99.90
37340;DHT22;23223;51.006;7.610;2023-06-22T07:53:40;26.50;99.90
37340;DHT22;23223;51.006;7.610;2023-06-22T07:56:05;26.50;99.90
37340;DHT22;23223;51.006;7.610;2023-06-22T07:58:33;26.30;99.90
37340;DHT22;23223;51.006;7.610;2023-06-22T08:00:59;26.40;99.90
37340;DHT22;23223;51.006;7.610;2023-06-22T08:03:24;26.50;99.90
37340;DHT22;23223;51.006;7.610;2023-06-22T08:05:50;26.70;99.90
37340;DHT22;23223;51.006;7.610;2023-06-22T08:08:15;26.70;99.90
37340;DHT22;23223;51.006;7.610;2023-06-22T08:10:42;26.70;99.90
37340;DHT22;23223;51.006;7.610;2023-06-22T08:13:08;26.90;99.90
37340;DHT22;23223;51.006;7.610;2023-06-22T08:15:33;26.90;99.90
37340;DHT22;23223;51.006;7.610;2023-06-22T08:17:59;27.00;99.90
37340;DHT22;23223;51.006;7.610;2023-06-22T08:20:26;27.20;99.90
37340;DHT22;23223;51.006;7.610;2023-06-22T08:22:53;27.30;99.90
37340;DHT22;23223;51.006;7.610;2023-06-22T08:25:19;27.50;99.90
37340;DHT22;23223;51.006;7.610;2023-06-22T08:27:46;27.90;99.90
37340;DHT22;23223;51.006;7.610;2023-06-22T08:30:13;28.50;99.90
37340;DHT22;23223;51.006;7.610;2023-06-22T08:32:38;28.70;99.90
37340;DHT22;23223;51.006;7.610;2023-06-22T08:35:04;28.90;99.90
37340;DHT22;23223;51.006;7.610;2023-06-22T08:37:31;29.10;99.90
37340;DHT22;23223;51.006;7.610;2023-06-22T08:40:02;29.20;99.90
37340;DHT22;23223;51.006;7.610;2023-06-22T08:42:30;29.40;99.90
37340;DHT22;23223;51.006;7.610;2023-06-22T08:44:59;29.70;99.90
37340;DHT22;23223;51.006;7.610;2023-06-22T08:47:25;30.00;99.90
37340;DHT22;23223;51.006;7.610;2023-06-22T08:49:50;30.00;99.90
37340;DHT22;23223;51.006;7.610;2023-06-22T08:52:17;30.40;99.90
37340;DHT22;23223;51.006;7.610;2023-06-22T08:54:43;30.40;99.90
37340;DHT22;23223;51.006;7.610;2023-06-22T08:57:10;30.40;99.90
37340;DHT22;23223;51.006;7.610;2023-06-22T08:59:35;30.40;99.90
37340;DHT22;23223;51.006;7.610;2023-06-22T09:02:01;30.40;99.90
37340;DHT22;23223;51.006;7.610;2023-06-22T09:04:26;30.30;99.90
37340;DHT22;23223;51.006;7.610;2023-06-22T09:06:52;30.00;99.90
37340;DHT22;23223;51.006;7.610;2023-06-22T09:09:18;30.10;99.90
37340;DHT22;23223;51.006;7.610;2023-06-22T09:11:44;30.00;99.90
37340;DHT22;23223;51.006;7.610;2023-06-22T09:14:10;30.40;99.90
37340;DHT22;23223;51.006;7.610;2023-06-22T09:16:36;31.00;99.90
37340;DHT22;23223;51.006;7.610;2023-06-22T09:19:01;31.00;99.90
37340;DHT22;23223;51.006;7.610;2023-06-22T09:21:27;31.40;99.90
37340;DHT22;23223;51.006;7.610;2023-06-22T09:23:53;31.50;99.90
37340;DHT22;23223;51.006;7.610;2023-06-22T09:26:19;31.60;99.90
37340;DHT22;23223;51.006;7.610;2023-06-22T09:28:45;31.00;99.90
37340;DHT22;23223;51.006;7.610;2023-06-22T09:31:10;30.50;99.90
37340;DHT22;23223;51.006;7.610;2023-06-22T09:33:37;30.20;99.90
37340;DHT22;23223;51.006;7.610;2023-06-22T09:36:06;30.20;99.90
37340;DHT22;23223;51.006;7.610;2023-06-22T09:38:38;30.50;99.90
37340;DHT22;23223;51.006;7.610;2023-06-22T09:41:04;30.30;99.90
37340;DHT22;23223;51.006;7.610;2023-06-22T09:43:31;30.10;99.90
37340;DHT22;23223;51.006;7.610;2023-06-22T09:45:57;30.30;99.90
37340;DHT22;23223;51.006;7.610;2023-06-22T09:48:23;30.40;99.90
37340;DHT22;23223;51.006;7.610;2023-06-22T09:50:48;30.20;99.90
37340;DHT22;23223;51.006;7.610;2023-06-22T09:53:14;29.70;99.90
37340;DHT22;23223;51.006;7.610;2023-06-22T09:55:39;29.90;99.90
37340;DHT22;23223;51.006;7.610;2023-06-22T09:58:05;30.20;99.90
37340;DHT22;23223;51.006;7.610;2023-06-22T10:00:31;30.50;99.90
37340;DHT22;23223;51.006;7.610;2023-06-22T10:02:56;30.50;99.90
37340;DHT22;23223;51.006;7.610;2023-06-22T10:05:22;30.40;99.90
37340;DHT22;23223;51.006;7.610;2023-06-22T10:07:48;30.30;99.90
37340;DHT22;23223;51.006;7.610;2023-06-22T10:10:14;30.70;99.90
37340;DHT22;23223;51.006;7.610;2023-06-22T10:12:48;30.60;99.90
37340;DHT22;23223;51.006;7.610;2023-06-22T10:15:15;30.60;99.90
37340;DHT22;23223;51.006;7.610;2023-06-22T10:17:40;30.20;99.90
37340;DHT22;23223;51.006;7.610;2023-06-22T10:20:07;29.70;99.90
37340;DHT22;23223;51.006;7.610;2023-06-22T10:22:42;29.30;99.90
37340;DHT22;23223;51.006;7.610;2023-06-22T10:25:09;28.80;99.90
37340;DHT22;23223;51.006;7.610;2023-06-22T10:27:35;28.60;99.90
37340;DHT22;23223;51.006;7.610;2023-06-22T10:30:00;28.60;99.90
37340;DHT22;23223;51.006;7.610;2023-06-22T10:32:26;28.30;99.90
37340;DHT22;23223;51.006;7.610;2023-06-22T10:34:54;28.10;99.90
37340;DHT22;23223;51.006;7.610;2023-06-22T10:37:19;28.00;99.90
37340;DHT22;23223;51.006;7.610;2023-06-22T10:39:45;27.80;99.90
37340;DHT22;23223;51.006;7.610;2023-06-22T10:42:12;27.80;99.90
37340;DHT22;23223;51.006;7.610;2023-06-22T10:44:37;27.80;99.90
37340;DHT22;23223;51.006;7.610;2023-06-22T10:47:04;27.80;99.90
37340;DHT22;23223;51.006;7.610;2023-06-22T10:49:30;27.90;99.90
37340;DHT22;23223;51.006;7.610;2023-06-22T10:51:55;27.80;99.90
37340;DHT22;23223;51.006;7.610;2023-06-22T10:54:21;27.70;99.90
37340;DHT22;23223;51.006;7.610;2023-06-22T10:56:46;27.70;99.90
37340;DHT22;23223;51.006;7.610;2023-06-22T10:59:12;27.70;99.90
37340;DHT22;23223;51.006;7.610;2023-06-22T11:01:37;27.70;99.90
37340;DHT22;23223;51.006;7.610;2023-06-22T11:04:03;27.40;99.90
37340;DHT22;23223;51.006;7.610;2023-06-22T11:06:29;27.10;99.90
37340;DHT22;23223;51.006;7.610;2023-06-22T11:08:55;26.70;99.90
37340;DHT22;23223;51.006;7.610;2023-06-22T11:11:21;26.50;99.90
37340;DHT22;23223;51.006;7.610;2023-06-22T11:13:46;26.10;99.90
37340;DHT22;23223;51.006;7.610;2023-06-22T11:16:12;25.90;99.90
37340;DHT22;23223;51.006;7.610;2023-06-22T11:18:37;25.70;99.90
37340;DHT22;23223;51.006;7.610;2023-06-22T11:21:03;25.50;99.90
37340;DHT22;23223;51.006;7.610;2023-06-22T11:23:28;25.30;99.90
37340;DHT22;23223;51.006;7.610;2023-06-22T11:25:54;25.10;99.90
37340;DHT22;23223;51.006;7.610;2023-06-22T11:28:20;24.90;99.90
37340;DHT22;23223;51.006;7.610;2023-06-22T11:30:46;24.80;99.90
37340;DHT22;23223;51.006;7.610;2023-06-22T11:33:11;24.60;99.90
37340;DHT22;23223;51.006;7.610;2023-06-22T11:35:37;24.50;99.90
37340;DHT22;23223;51.006;7.610;2023-06-22T11:38:02;24.40;99.90
37340;DHT22;23223;51.006;7.610;2023-06-22T11:40:29;24.20;99.90
37340;DHT22;23223;51.006;7.610;2023-06-22T11:42:55;24.00;99.90
37340;DHT22;23223;51.006;7.610;2023-06-22T11:45:20;24.20;99.90
37340;DHT22;23223;51.006;7.610;2023-06-22T11:47:46;24.30;99.90
37340;DHT22;23223;51.006;7.610;2023-06-22T11:50:12;24.30;99.90
37340;DHT22;23223;51.006;7.610;2023-06-22T11:52:37;24.20;99.90
37340;DHT22;23223;51.006;7.610;2023-06-22T11:55:04;24.10;99.90
37340;DHT22;23223;51.006;7.610;2023-06-22T11:57:36;23.90;99.90
37340;DHT22;23223;51.006;7.610;2023-06-22T12:00:03;23.90;99.90
37340;DHT22;23223;51.006;7.610;2023-06-22T12:02:32;23.80;99.90
37340;DHT22;23223;51.006;7.610;2023-06-22T12:04:57;23.70;99.90
37340;DHT22;23223;51.006;7.610;2023-06-22T12:07:23;23.60;99.90
37340;DHT22;23223;51.006;7.610;2023-06-22T12:09:49;23.00;99.90
37340;DHT22;23223;51.006;7.610;2023-06-22T12:12:15;22.70;99.90
37340;DHT22;23223;51.006;7.610;2023-06-22T12:14:40;22.30;99.90
37340;DHT22;23223;51.006;7.610;2023-06-22T12:17:06;21.90;99.90
37340;DHT22;23223;51.006;7.610;2023-06-22T12:19:31;21.50;99.90
37340;DHT22;23223;51.006;7.610;2023-06-22T12:21:57;21.30;99.90
37340;DHT22;23223;51.006;7.610;2023-06-22T12:24:22;21.30;99.90
37340;DHT22;23223;51.006;7.610;2023-06-22T12:26:48;21.50;99.90
37340;DHT22;23223;51.006;7.610;2023-06-22T12:29:14;21.90;99.90
37340;DHT22;23223;51.006;7.610;2023-06-22T12:31:40;22.10;99.90
37340;DHT22;23223;51.006;7.610;2023-06-22T12:34:06;22.30;99.90
37340;DHT22;23223;51.006;7.610;2023-06-22T12:36:32;22.40;99.90
37340;DHT22;23223;51.006;7.610;2023-06-22T12:38:58;22.60;99.90
37340;DHT22;23223;51.006;7.610;2023-06-22T12:41:23;22.70;99.90
37340;DHT22;23223;51.006;7.610;2023-06-22T12:43:49;23.00;99.90
37340;DHT22;23223;51.006;7.610;2023-06-22T12:46:14;23.30;99.90
37340;DHT22;23223;51.006;7.610;2023-06-22T12:48:40;23.50;99.90
37340;DHT22;23223;51.006;7.610;2023-06-22T12:51:08;23.80;99.90
37340;DHT22;23223;51.006;7.610;2023-06-22T12:53:34;24.00;99.90
37340;DHT22;23223;51.006;7.610;2023-06-22T12:56:00;24.40;99.90
37340;DHT22;23223;51.006;7.610;2023-06-22T12:58:25;25.00;99.90
37340;DHT22;23223;51.006;7.610;2023-06-22T13:00:51;25.50;99.90
37340;DHT22;23223;51.006;7.610;2023-06-22T13:03:16;26.00;99.90
37340;DHT22;23223;51.006;7.610;2023-06-22T13:05:42;26.40;99.90
37340;DHT22;23223;51.006;7.610;2023-06-22T13:08:07;26.80;99.90
37340;DHT22;23223;51.006;7.610;2023-06-22T13:10:33;26.80;99.90
37340;DHT22;23223;51.006;7.610;2023-06-22T13:12:59;27.00;99.90
37340;DHT22;23223;51.006;7.610;2023-06-22T13:15:28;27.70;99.90
37340;DHT22;23223;51.006;7.610;2023-06-22T13:17:55;28.50;99.90
37340;DHT22;23223;51.006;7.610;2023-06-22T13:20:20;28.80;99.90
37340;DHT22;23223;51.006;7.610;2023-06-22T13:22:46;29.50;99.90
37340;DHT22;23223;51.006;7.610;2023-06-22T13:25:11;30.20;99.90
37340;DHT22;23223;51.006;7.610;2023-06-22T13:27:41;30.60;99.90
37340;DHT22;23223;51.006;7.610;2023-06-22T13:30:08;31.00;99.90
37340;DHT22;23223;51.006;7.610;2023-06-22T13:32:34;31.10;99.90
37340;DHT22;23223;51.006;7.610;2023-06-22T13:34:59;31.00;99.90
37340;DHT22;23223;51.006;7.610;2023-06-22T13:37:25;30.90;99.90
37340;DHT22;23223;51.006;7.610;2023-06-22T13:39:51;30.90;99.90
37340;DHT22;23223;51.006;7.610;2023-06-22T13:42:17;30.50;99.90
37340;DHT22;23223;51.006;7.610;2023-06-22T13:44:43;30.20;99.90
37340;DHT22;23223;51.006;7.610;2023-06-22T13:47:08;30.00;99.90
37340;DHT22;23223;51.006;7.610;2023-06-22T13:49:34;29.90;99.90
37340;DHT22;23223;51.006;7.610;2023-06-22T13:51:59;29.60;99.90
37340;DHT22;23223;51.006;7.610;2023-06-22T13:54:25;29.40;99.90
37340;DHT22;23223;51.006;7.610;2023-06-22T13:56:51;29.30;99.90
37340;DHT22;23223;51.006;7.610;2023-06-22T13:59:16;28.90;99.90
37340;DHT22;23223;51.006;7.610;2023-06-22T14:01:42;28.50;99.90
37340;DHT22;23223;51.006;7.610;2023-06-22T14:04:09;28.30;99.90
37340;DHT22;23223;51.006;7.610;2023-06-22T14:06:35;27.90;99.90
37340;DHT22;23223;51.006;7.610;2023-06-22T14:09:00;27.70;99.90
37340;DHT22;23223;51.006;7.610;2023-06-22T14:11:26;27.80;99.90
37340;DHT22;23223;51.006;7.610;2023-06-22T14:13:51;27.70;99.90
37340;DHT22;23223;51.006;7.610;2023-06-22T14:16:17;27.90;99.90
37340;DHT22;23223;51.006;7.610;2023-06-22T14:18:43;28.00;99.90
37340;DHT22;23223;51.006;7.610;2023-06-22T14:21:08;28.10;99.90
37340;DHT22;23223;51.006;7.610;2023-06-22T14:23:34;28.30;99.90
37340;DHT22;23223;51.006;7.610;2023-06-22T14:25:59;28.30;99.90
37340;DHT22;23223;51.006;7.610;2023-06-22T14:28:25;28.10;99.90
37340;DHT22;23223;51.006;7.610;2023-06-22T14:30:51;27.90;99.90
37340;DHT22;23223;51.006;7.610;2023-06-22T14:33:16;27.60;99.90
37340;DHT22;23223;51.006;7.610;2023-06-22T14:35:42;27.40;99.90
37340;DHT22;23223;51.006;7.610;2023-06-22T14:38:07;27.20;99.90
37340;DHT22;23223;51.006;7.610;2023-06-22T14:40:33;26.80;99.90
37340;DHT22;23223;51.006;7.610;2023-06-22T14:42:59;26.60;99.90
37340;DHT22;23223;51.006;7.610;2023-06-22T14:45:24;26.40;99.90
37340;DHT22;23223;51.006;7.610;2023-06-22T14:47:50;26.40;99.90
37340;DHT22;23223;51.006;7.610;2023-06-22T14:50:15;26.20;99.90
37340;DHT22;23223;51.006;7.610;2023-06-22T14:52:41;26.10;99.90
37340;DHT22;23223;51.006;7.610;2023-06-22T14:55:07;26.00;99.90
37340;DHT22;23223;51.006;7.610;2023-06-22T14:57:33;26.00;99.90
37340;DHT22;23223;51.006;7.610;2023-06-22T14:59:58;25.90;99.90
37340;DHT22;23223;51.006;7.610;2023-06-22T15:02:25;25.90;99.90
37340;DHT22;23223;51.006;7.610;2023-06-22T15:04:51;25.80;99.90
37340;DHT22;23223;51.006;7.610;2023-06-22T15:07:18;25.50;99.90
37340;DHT22;23223;51.006;7.610;2023-06-22T15:09:44;25.30;99.90
37340;DHT22;23223;51.006;7.610;2023-06-22T15:12:10;25.10;99.90
37340;DHT22;23223;51.006;7.610;2023-06-22T15:14:40;25.10;99.90
37340;DHT22;23223;51.006;7.610;2023-06-22T15:17:07;24.90;99.90
37340;DHT22;23223;51.006;7.610;2023-06-22T15:19:36;24.80;99.90
37340;DHT22;23223;51.006;7.610;2023-06-22T15:22:06;24.50;99.90
37340;DHT22;23223;51.006;7.610;2023-06-22T15:24:32;24.10;99.90
37340;DHT22;23223;51.006;7.610;2023-06-22T15:26:58;22.00;99.90
37340;DHT22;23223;51.006;7.610;2023-06-22T15:29:23;20.80;99.90